createdAt,value
2018-10-04T00:02:06.440Z,5.77
2018-10-04T00:04:35.167Z,5.10
2018-10-04T00:07:03.843Z,5.23
2018-10-04T00:09:32.660Z,6.10
2018-10-04T00:12:01.296Z,5.70
2018-10-04T00:14:31.167Z,5.57
2018-10-04T00:16:59.885Z,5.97
2018-10-04T00:19:28.535Z,7.73
2018-10-04T00:21:57.260Z,6.10
2018-10-04T00:24:25.948Z,5.80
2018-10-04T00:26:54.708Z,6.37
2018-10-04T00:29:23.359Z,5.97
2018-10-04T00:31:52.107Z,7.00
2018-10-04T00:34:20.692Z,5.90
2018-10-04T00:36:49.403Z,6.10
2018-10-04T00:39:18.019Z,6.30
2018-10-04T00:41:46.774Z,6.97
2018-10-04T00:44:15.412Z,6.27
2018-10-04T00:46:44.084Z,6.80
2018-10-04T00:49:12.740Z,6.20
2018-10-04T00:51:41.335Z,7.17
2018-10-04T00:54:09.970Z,8.00
2018-10-04T00:56:38.626Z,6.80
2018-10-04T00:59:07.561Z,7.50
2018-10-04T01:01:36.183Z,7.60
2018-10-04T01:04:04.747Z,7.70
2018-10-04T01:06:33.407Z,7.20
2018-10-04T01:09:02.177Z,7.10
2018-10-04T01:11:30.798Z,7.30
2018-10-04T01:13:59.453Z,6.63
2018-10-04T01:16:28.271Z,6.90
2018-10-04T01:18:58.204Z,6.73
2018-10-04T01:21:26.858Z,6.70
2018-10-04T01:23:55.637Z,7.40
2018-10-04T01:26:24.778Z,7.20
2018-10-04T01:28:54.328Z,7.27
2018-10-04T01:31:23.491Z,6.47
2018-10-04T01:33:52.274Z,7.67
2018-10-04T01:36:21.030Z,7.67
2018-10-04T01:38:49.845Z,6.90
2018-10-04T01:41:18.505Z,6.20
2018-10-04T01:43:47.376Z,6.50
2018-10-04T01:46:16.092Z,7.43
2018-10-04T01:48:44.831Z,7.40
2018-10-04T01:51:13.420Z,7.50
2018-10-04T01:53:42.257Z,7.93
2018-10-04T01:56:11.051Z,6.73
2018-10-04T01:58:39.734Z,6.23
2018-10-04T02:01:08.438Z,7.73
2018-10-04T02:03:37.157Z,7.77
2018-10-04T02:06:06.016Z,8.80
2018-10-04T02:08:35.028Z,8.50
2018-10-04T02:11:03.759Z,8.77
2018-10-04T02:13:32.478Z,8.13
2018-10-04T02:16:01.195Z,6.90
2018-10-04T02:18:29.989Z,7.50
2018-10-04T02:20:58.685Z,8.37
2018-10-04T02:23:27.359Z,9.47
2018-10-04T02:25:56.014Z,8.67
2018-10-04T02:28:24.609Z,8.20
2018-10-04T02:30:53.306Z,8.67
2018-10-04T02:33:21.941Z,8.77
2018-10-04T02:35:50.637Z,8.03
2018-10-04T02:38:19.231Z,7.57
2018-10-04T02:40:48.027Z,7.90
2018-10-04T02:43:16.681Z,8.97
2018-10-04T02:45:45.337Z,9.23
2018-10-04T02:48:14.151Z,7.73
2018-10-04T02:50:42.927Z,8.30
2018-10-04T02:53:11.722Z,7.40
2018-10-04T02:55:45.879Z,8.13
2018-10-04T02:58:14.552Z,8.10
2018-10-04T03:00:43.246Z,9.90
2018-10-04T03:03:11.903Z,10.60
2018-10-04T03:05:40.560Z,8.67
2018-10-04T03:08:09.314Z,8.10
2018-10-04T03:10:38.192Z,8.40
2018-10-04T03:13:07.024Z,8.43
2018-10-04T03:15:35.720Z,8.73
2018-10-04T03:18:04.514Z,7.93
2018-10-04T03:20:33.209Z,8.53
2018-10-04T03:23:01.924Z,9.70
2018-10-04T03:25:30.599Z,7.77
2018-10-04T03:27:59.315Z,9.00
2018-10-04T03:30:28.060Z,9.20
2018-10-04T03:32:56.841Z,9.40
2018-10-04T03:35:25.540Z,8.80
2018-10-04T03:37:54.176Z,9.17
2018-10-04T03:40:23.013Z,9.13
2018-10-04T03:42:51.726Z,8.80
2018-10-04T03:45:20.302Z,8.43
2018-10-04T03:47:48.983Z,9.57
2018-10-04T03:50:17.750Z,8.67
2018-10-04T03:52:46.486Z,9.50
2018-10-04T03:55:15.133Z,8.20
2018-10-04T03:57:43.910Z,9.30
2018-10-04T04:00:12.592Z,9.00
2018-10-04T04:02:41.353Z,8.30
2018-10-04T04:05:10.061Z,8.80
2018-10-04T04:07:38.758Z,8.97
2018-10-04T04:10:07.532Z,9.80
2018-10-04T04:12:36.228Z,9.03
2018-10-04T04:15:05.280Z,9.60
2018-10-04T04:17:34.039Z,9.20
2018-10-04T04:20:02.754Z,9.90
2018-10-04T04:22:31.507Z,9.70
2018-10-04T04:25:00.191Z,10.40
2018-10-04T04:27:28.839Z,9.57
2018-10-04T04:29:57.486Z,8.67
2018-10-04T04:32:26.209Z,10.57
2018-10-04T04:34:54.924Z,9.13
2018-10-04T04:37:23.599Z,9.20
2018-10-04T04:39:52.386Z,7.87
2018-10-04T04:42:21.108Z,9.47
2018-10-04T04:44:49.785Z,9.00
2018-10-04T04:47:18.601Z,8.23
2018-10-04T04:49:47.594Z,8.87
2018-10-04T04:52:16.340Z,9.60
2018-10-04T04:55:48.504Z,8.67
2018-10-04T04:58:17.431Z,8.70
2018-10-04T05:00:47.014Z,8.93
2018-10-04T05:03:15.931Z,8.60
2018-10-04T05:05:44.683Z,7.67
2018-10-04T05:08:13.500Z,8.67
2018-10-04T05:10:42.336Z,7.73
2018-10-04T05:13:11.510Z,7.90
2018-10-04T05:15:40.344Z,8.67
2018-10-04T05:18:09.146Z,8.60
2018-10-04T05:20:37.836Z,7.67
2018-10-04T05:23:06.712Z,8.30
2018-10-04T05:25:35.365Z,8.63
2018-10-04T05:28:04.081Z,8.33
2018-10-04T05:30:32.816Z,9.13
2018-10-04T05:33:04.946Z,6.93
2018-10-04T05:35:34.846Z,8.73
2018-10-04T05:38:08.592Z,7.83
2018-10-04T05:40:37.803Z,7.93
2018-10-04T05:43:08.140Z,8.23
2018-10-04T05:45:37.556Z,9.37
2018-10-04T05:48:10.941Z,8.70
2018-10-04T05:50:41.078Z,7.77
2018-10-04T05:53:10.339Z,7.23
2018-10-04T05:55:39.925Z,7.43
2018-10-04T05:58:09.960Z,7.77
2018-10-04T06:00:42.056Z,8.57
2018-10-04T06:03:11.712Z,6.70
2018-10-04T06:05:41.367Z,6.90
2018-10-04T06:08:10.200Z,7.40
2018-10-04T06:10:38.935Z,7.93
2018-10-04T06:13:07.611Z,8.30
2018-10-04T06:15:37.100Z,9.37
2018-10-04T06:18:06.517Z,9.77
2018-10-04T06:20:39.525Z,8.40
2018-10-04T06:23:09.186Z,9.30
2018-10-04T06:25:38.334Z,8.80
2018-10-04T06:28:07.047Z,9.07
2018-10-04T06:30:35.888Z,8.73
2018-10-04T06:33:04.551Z,8.37
2018-10-04T06:35:33.386Z,9.60
2018-10-04T06:38:02.419Z,7.63
2018-10-04T06:40:31.534Z,8.63
2018-10-04T06:43:00.569Z,9.33
2018-10-04T06:45:29.332Z,8.57
2018-10-04T06:47:58.318Z,8.67
2018-10-04T06:50:26.770Z,9.40
2018-10-04T06:52:55.878Z,9.20
2018-10-04T06:55:24.566Z,9.47
2018-10-04T06:57:53.313Z,9.23
2018-10-04T07:00:22.595Z,8.97
2018-10-04T07:02:51.166Z,9.00
2018-10-04T07:05:19.744Z,9.33
2018-10-04T07:07:48.444Z,8.63
2018-10-04T07:10:17.038Z,9.20
2018-10-04T07:12:45.521Z,9.00
2018-10-04T07:15:14.443Z,9.27
2018-10-04T07:17:44.018Z,9.27
2018-10-04T07:20:13.180Z,9.60
2018-10-04T07:22:41.800Z,8.73
2018-10-04T07:25:10.666Z,8.10
2018-10-04T07:27:39.411Z,8.23
2018-10-04T07:30:07.993Z,8.20
2018-10-04T07:32:36.887Z,8.50
2018-10-04T07:35:05.733Z,8.17
2018-10-04T07:37:34.738Z,7.50
2018-10-04T07:40:03.519Z,7.83
2018-10-04T07:42:32.095Z,8.33
2018-10-04T07:45:00.863Z,7.63
2018-10-04T07:47:29.521Z,7.83
2018-10-04T07:49:58.472Z,8.90
2018-10-04T07:52:26.952Z,9.40
2018-10-04T07:54:55.561Z,8.47
2018-10-04T07:57:24.225Z,8.43
2018-10-04T07:59:52.978Z,9.40
2018-10-04T08:02:21.675Z,9.10
2018-10-04T08:04:50.543Z,8.00
2018-10-04T08:07:19.048Z,8.10
2018-10-04T08:09:47.572Z,8.37
2018-10-04T08:12:16.586Z,9.33
2018-10-04T08:14:45.182Z,9.40
2018-10-04T08:19:53.052Z,8.63
2018-10-04T08:22:22.658Z,8.47
2018-10-04T08:24:51.853Z,8.33
2018-10-04T08:27:20.907Z,8.90
2018-10-04T08:29:49.491Z,8.60
2018-10-04T08:32:19.195Z,7.90
2018-10-04T08:34:47.995Z,7.57
2018-10-04T08:37:16.950Z,7.57
2018-10-04T08:39:45.861Z,8.50
2018-10-04T08:42:14.957Z,7.73
2018-10-04T08:44:44.015Z,7.90
2018-10-04T08:47:12.720Z,7.87
2018-10-04T08:49:41.421Z,7.57
2018-10-04T08:52:15.525Z,7.70
2018-10-04T08:54:44.026Z,7.50
2018-10-04T08:57:12.568Z,7.33
2018-10-04T08:59:41.268Z,8.07
2018-10-04T09:02:09.971Z,7.00
2018-10-04T09:04:38.548Z,8.20
2018-10-04T09:07:07.441Z,8.17
2018-10-04T09:09:36.237Z,7.80
2018-10-04T09:12:04.783Z,7.87
2018-10-04T09:14:33.229Z,7.50
2018-10-04T09:17:01.747Z,6.77
2018-10-04T09:19:32.650Z,8.10
2018-10-04T09:22:01.671Z,8.20
2018-10-04T09:24:30.360Z,7.40
2018-10-04T09:26:59.139Z,8.50
2018-10-04T09:29:27.948Z,7.83
2018-10-04T09:31:57.109Z,8.13
2018-10-04T09:34:26.505Z,7.27
2018-10-04T09:36:55.744Z,8.00
2018-10-04T09:39:24.236Z,7.93
2018-10-04T09:41:52.803Z,8.10
2018-10-04T09:44:21.575Z,8.63
2018-10-04T09:46:50.953Z,7.73
2018-10-04T09:49:19.986Z,7.90
2018-10-04T09:51:54.147Z,7.77
2018-10-04T09:54:28.338Z,8.50
2018-10-04T09:56:56.972Z,8.87
2018-10-04T09:59:25.727Z,8.10
2018-10-04T10:02:00.220Z,8.67
2018-10-04T10:04:30.628Z,8.30
2018-10-04T10:06:59.412Z,8.53
2018-10-04T10:09:28.467Z,7.67
2018-10-04T10:11:57.055Z,7.80
2018-10-04T10:14:25.853Z,7.93
2018-10-04T10:16:55.252Z,8.13
2018-10-04T10:19:24.583Z,7.43
2018-10-04T10:21:53.085Z,8.50
2018-10-04T10:24:21.605Z,8.30
2018-10-04T10:26:51.271Z,8.43
2018-10-04T10:29:20.092Z,7.90
2018-10-04T10:31:48.745Z,8.50
2018-10-04T10:34:17.636Z,8.37
2018-10-04T10:36:46.331Z,7.97
2018-10-04T10:39:15.098Z,7.93
2018-10-04T10:41:43.607Z,8.57
2018-10-04T10:44:12.185Z,7.90
2018-10-04T10:46:40.726Z,7.67
2018-10-04T10:49:09.386Z,7.80
2018-10-04T10:51:38.587Z,8.47
2018-10-04T10:54:07.276Z,8.00
2018-10-04T10:56:36.072Z,8.90
2018-10-04T10:59:04.961Z,8.70
2018-10-04T11:01:34.442Z,7.90
2018-10-04T11:04:03.157Z,8.50
2018-10-04T11:06:31.906Z,8.50
2018-10-04T11:09:00.732Z,8.37
2018-10-04T11:11:29.594Z,8.30
2018-10-04T11:13:58.114Z,8.50
2018-10-04T11:16:26.990Z,7.87
2018-10-04T11:18:55.805Z,8.70
2018-10-04T11:21:24.529Z,9.43
2018-10-04T11:23:53.291Z,9.23
2018-10-04T11:26:21.983Z,8.33
2018-10-04T11:28:51.505Z,8.30
2018-10-04T11:31:20.124Z,8.63
2018-10-04T11:33:49.576Z,8.40
2018-10-04T11:36:18.292Z,8.60
2018-10-04T11:38:47.221Z,7.90
2018-10-04T11:41:15.999Z,8.63
2018-10-04T11:43:46.039Z,8.03
2018-10-04T11:46:15.082Z,7.93
2018-10-04T11:48:46.927Z,7.63
2018-10-04T11:51:16.220Z,8.43
2018-10-04T11:53:46.398Z,7.90
2018-10-04T11:56:15.408Z,8.53
2018-10-04T11:58:44.205Z,8.40
2018-10-04T12:01:13.504Z,7.87
2018-10-04T12:03:42.326Z,9.50
2018-10-04T12:06:11.035Z,8.73
2018-10-04T12:08:39.624Z,8.50
2018-10-04T12:11:08.339Z,9.23
2018-10-04T12:13:37.155Z,9.63
2018-10-04T12:16:06.947Z,8.40
2018-10-04T12:18:35.975Z,8.30
2018-10-04T12:21:04.700Z,10.10
2018-10-04T12:23:33.837Z,9.17
2018-10-04T12:26:02.721Z,9.77
2018-10-04T12:28:31.629Z,9.60
2018-10-04T12:31:00.273Z,9.80
2018-10-04T12:33:28.850Z,9.40
2018-10-04T12:35:57.541Z,9.03
2018-10-04T12:38:26.421Z,8.63
2018-10-04T12:40:55.878Z,9.30
2018-10-04T12:43:24.644Z,8.97
2018-10-04T12:45:53.115Z,9.70
2018-10-04T12:48:22.206Z,7.93
2018-10-04T12:50:50.710Z,8.40
2018-10-04T12:53:21.178Z,8.30
2018-10-04T12:55:50.095Z,7.90
2018-10-04T12:58:18.602Z,9.17
2018-10-04T13:00:47.295Z,8.20
2018-10-04T13:03:15.875Z,7.87
2018-10-04T13:05:44.592Z,6.90
2018-10-04T13:08:14.327Z,6.03
2018-10-04T13:10:43.423Z,6.53
2018-10-04T13:13:12.338Z,7.10
2018-10-04T13:15:40.860Z,6.97
2018-10-04T13:18:09.849Z,6.60
2018-10-04T13:20:38.509Z,7.90
2018-10-04T13:23:07.318Z,6.90
2018-10-04T13:25:36.044Z,7.80
2018-10-04T13:28:04.607Z,7.70
2018-10-04T13:30:33.227Z,6.43
2018-10-04T13:33:01.979Z,6.50
2018-10-04T13:35:30.676Z,6.30
2018-10-04T13:37:59.546Z,6.27
2018-10-04T13:40:28.232Z,7.03
2018-10-04T13:42:57.299Z,7.10
2018-10-04T13:45:25.995Z,6.27
2018-10-04T13:47:54.639Z,6.87
2018-10-04T13:50:23.095Z,7.20
2018-10-04T13:52:51.695Z,5.90
2018-10-04T13:55:20.276Z,6.90
2018-10-04T13:57:49.066Z,7.73
2018-10-04T14:00:17.675Z,6.80
2018-10-04T14:02:46.238Z,7.07
2018-10-04T14:05:15.175Z,7.60
2018-10-04T14:07:44.028Z,6.87
2018-10-04T14:10:12.628Z,6.93
2018-10-04T14:12:41.184Z,5.90
2018-10-04T14:15:10.185Z,6.03
2018-10-04T14:17:38.723Z,6.30
2018-10-04T14:20:07.520Z,6.07
2018-10-04T14:22:36.282Z,6.10
2018-10-04T14:25:05.717Z,5.67
2018-10-04T14:27:34.335Z,5.77
2018-10-04T14:30:02.861Z,7.73
2018-10-04T14:32:31.479Z,7.17
2018-10-04T14:35:00.077Z,6.57
2018-10-04T14:37:28.716Z,6.07
2018-10-04T14:39:57.367Z,7.47
2018-10-04T14:42:25.764Z,7.13
2018-10-04T14:44:54.384Z,7.10
2018-10-04T14:47:23.618Z,6.90
2018-10-04T14:49:52.229Z,8.10
2018-10-04T14:52:21.121Z,7.30
2018-10-04T14:54:50.386Z,8.33
2018-10-04T14:57:19.034Z,7.73
2018-10-04T14:59:47.708Z,8.03
2018-10-04T15:02:16.937Z,8.37
2018-10-04T15:04:45.543Z,8.40
2018-10-04T15:07:14.655Z,8.33
2018-10-04T15:09:43.931Z,9.87
2018-10-04T15:12:16.033Z,9.60
2018-10-04T15:14:44.998Z,9.47
2018-10-04T15:17:13.931Z,10.23
2018-10-04T15:19:42.686Z,9.83
2018-10-04T15:22:11.955Z,11.27
2018-10-04T15:24:42.602Z,11.00
2018-10-04T15:27:12.312Z,12.10
2018-10-04T15:29:41.331Z,11.70
2018-10-04T15:32:09.915Z,10.17
2018-10-04T15:34:38.531Z,12.13
2018-10-04T15:37:07.527Z,10.80
2018-10-04T15:39:36.190Z,10.80
2018-10-04T15:42:04.967Z,12.40
2018-10-04T15:44:34.546Z,10.67
2018-10-04T15:47:03.450Z,10.30
2018-10-04T15:49:32.122Z,11.40
2018-10-04T15:52:00.932Z,10.97
2018-10-04T15:54:29.674Z,11.53
2018-10-04T15:56:58.280Z,11.60
2018-10-04T15:59:27.335Z,9.73
2018-10-04T16:01:56.090Z,9.90
2018-10-04T16:04:25.144Z,11.30
2018-10-04T16:06:53.696Z,11.20
2018-10-04T16:09:22.633Z,12.20
2018-10-04T16:11:51.290Z,10.00
2018-10-04T16:14:21.585Z,12.23
2018-10-04T16:16:50.099Z,12.63
2018-10-04T16:19:18.930Z,11.20
2018-10-04T16:21:47.515Z,12.40
2018-10-04T16:24:16.366Z,13.10
2018-10-04T16:26:45.080Z,12.93
2018-10-04T16:29:14.705Z,13.07
2018-10-04T16:31:43.423Z,13.33
2018-10-04T16:34:12.214Z,13.00
2018-10-04T16:36:40.673Z,13.27
2018-10-04T16:39:10.013Z,13.63
2018-10-04T16:41:38.712Z,14.47
2018-10-04T16:44:07.681Z,15.23
2018-10-04T16:46:36.763Z,13.97
2018-10-04T16:49:05.804Z,15.90
2018-10-04T16:51:34.942Z,13.70
2018-10-04T16:54:03.776Z,13.63
2018-10-04T16:56:32.745Z,15.13
2018-10-04T16:59:01.519Z,15.57
2018-10-04T17:01:30.228Z,16.90
2018-10-04T17:03:59.564Z,15.50
2018-10-04T17:06:28.857Z,15.77
2018-10-04T17:08:57.855Z,15.03
2018-10-04T17:11:27.026Z,15.03
2018-10-04T17:13:56.451Z,13.73
2018-10-04T17:16:26.468Z,14.20
2018-10-04T17:18:56.367Z,14.60
2018-10-04T17:21:25.578Z,14.30
2018-10-04T17:23:54.531Z,14.70
2018-10-04T17:26:23.283Z,15.20
2018-10-04T17:28:52.380Z,15.37
2018-10-04T17:31:21.115Z,16.80
2018-10-04T17:33:49.772Z,17.10
2018-10-04T17:36:18.386Z,18.07
2018-10-04T17:38:47.065Z,19.13
2018-10-04T17:41:15.858Z,17.03
2018-10-04T17:43:44.568Z,19.57
2018-10-04T17:46:13.315Z,20.43
2018-10-04T17:48:42.023Z,22.80
2018-10-04T17:51:10.619Z,20.90
2018-10-04T17:53:39.354Z,20.47
2018-10-04T17:56:08.078Z,18.87
2018-10-04T17:58:36.745Z,19.73
2018-10-04T18:01:05.343Z,19.07
2018-10-04T18:03:34.055Z,18.07
2018-10-04T18:06:02.680Z,17.30
2018-10-04T18:08:31.310Z,16.77
2018-10-04T18:11:00.101Z,18.40
2018-10-04T18:13:28.677Z,17.70
2018-10-04T18:15:57.513Z,20.43
2018-10-04T18:18:26.076Z,17.90
2018-10-04T18:20:54.722Z,20.63
2018-10-04T18:23:23.439Z,19.30
2018-10-04T18:25:52.035Z,16.80
2018-10-04T18:28:20.786Z,18.23
2018-10-04T18:30:49.845Z,19.77
2018-10-04T18:33:18.620Z,20.63
2018-10-04T18:35:47.205Z,19.57
2018-10-04T18:38:16.130Z,16.73
2018-10-04T18:40:44.832Z,15.97
2018-10-04T18:43:13.521Z,17.03
2018-10-04T18:45:42.163Z,18.27
2018-10-04T18:48:10.733Z,17.10
2018-10-04T18:50:39.528Z,18.60
2018-10-04T18:53:08.104Z,18.23
2018-10-04T18:55:36.839Z,19.43
2018-10-04T18:58:05.598Z,17.43
2018-10-04T19:00:34.331Z,17.97
2018-10-04T19:03:03.050Z,19.00
2018-10-04T19:05:32.132Z,19.63
2018-10-04T19:08:00.902Z,19.10
2018-10-04T19:10:29.611Z,19.33
2018-10-04T19:12:58.346Z,20.70
2018-10-04T19:15:27.077Z,19.10
2018-10-04T19:17:55.757Z,19.57
2018-10-04T19:20:24.586Z,18.07
2018-10-04T19:22:53.459Z,19.80
2018-10-04T19:25:22.248Z,21.10
2018-10-04T19:27:50.919Z,19.80
2018-10-04T19:30:19.599Z,20.17
2018-10-04T19:32:48.311Z,20.47
2018-10-04T19:35:16.945Z,20.40
2018-10-04T19:37:45.742Z,19.33
2018-10-04T19:40:14.296Z,23.00
2018-10-04T19:42:42.892Z,21.40
2018-10-04T19:45:11.566Z,20.37
2018-10-04T19:47:40.346Z,19.83
2018-10-04T19:50:09.098Z,20.27
2018-10-04T19:52:38.013Z,20.50
2018-10-04T19:55:06.829Z,19.97
2018-10-04T19:57:35.622Z,20.73
2018-10-04T20:00:04.199Z,22.33
2018-10-04T20:02:32.894Z,20.67
2018-10-04T20:05:01.830Z,21.40
2018-10-04T20:07:30.436Z,22.13
2018-10-04T20:09:59.044Z,22.00
2018-10-04T20:12:27.795Z,21.73
2018-10-04T20:14:56.346Z,22.30
2018-10-04T20:17:25.109Z,20.70
2018-10-04T20:19:53.823Z,21.53
2018-10-04T20:22:22.759Z,20.10
2018-10-04T20:24:51.482Z,20.70
2018-10-04T20:27:20.247Z,20.90
2018-10-04T20:29:48.886Z,21.37
2018-10-04T20:32:17.688Z,19.90
2018-10-04T20:34:46.305Z,18.77
2018-10-04T20:37:15.011Z,18.80
2018-10-04T20:39:43.461Z,19.97
2018-10-04T20:42:12.654Z,19.13
2018-10-04T20:44:41.345Z,17.50
2018-10-04T20:47:10.100Z,17.70
2018-10-04T20:49:38.776Z,20.70
2018-10-04T20:52:07.613Z,18.90
2018-10-04T20:54:36.304Z,20.47
2018-10-04T20:57:04.969Z,19.00
2018-10-04T20:59:33.748Z,17.93
2018-10-04T21:02:02.449Z,18.63
2018-10-04T21:04:31.248Z,19.10
2018-10-04T21:06:59.806Z,14.87
2018-10-04T21:09:28.478Z,18.37
2018-10-04T21:11:57.004Z,18.47
2018-10-04T21:14:25.560Z,17.43
2018-10-04T21:16:54.215Z,16.60
2018-10-04T21:19:22.849Z,17.70
2018-10-04T21:21:51.415Z,17.40
2018-10-04T21:24:20.061Z,16.50
2018-10-04T21:26:48.536Z,17.57
2018-10-04T21:29:17.128Z,16.87
2018-10-04T21:31:45.758Z,15.80
2018-10-04T21:34:14.422Z,16.80
2018-10-04T21:36:42.997Z,17.27
2018-10-04T21:39:11.553Z,16.60
2018-10-04T21:41:40.187Z,16.43
2018-10-04T21:44:08.763Z,13.90
2018-10-04T21:46:37.459Z,14.67
2018-10-04T21:49:06.524Z,15.10
2018-10-04T21:51:35.130Z,13.57
2018-10-04T21:54:03.884Z,14.40
2018-10-04T21:56:32.499Z,14.47
2018-10-04T21:59:01.274Z,15.17
2018-10-04T22:01:29.976Z,14.47
2018-10-04T22:03:58.561Z,14.27
2018-10-04T22:06:27.157Z,16.00
2018-10-04T22:08:55.795Z,13.20
2018-10-04T22:11:24.449Z,15.63
2018-10-04T22:13:53.007Z,13.03
2018-10-04T22:16:21.582Z,12.40
2018-10-04T22:18:50.115Z,12.57
2018-10-04T22:21:18.851Z,13.30
2018-10-04T22:23:47.507Z,12.23
2018-10-04T22:26:16.183Z,13.03
2018-10-04T22:28:44.778Z,12.67
2018-10-04T22:31:13.517Z,14.10
2018-10-04T22:33:42.248Z,11.50
2018-10-04T22:36:10.953Z,12.70
2018-10-04T22:38:39.722Z,12.07
2018-10-04T22:41:08.496Z,13.30
2018-10-04T22:43:37.210Z,12.70
2018-10-04T22:46:05.906Z,13.13
2018-10-04T22:48:34.740Z,12.03
2018-10-04T22:51:03.616Z,11.37
2018-10-04T22:53:32.491Z,12.53
2018-10-04T22:56:01.227Z,12.70
2018-10-04T22:58:30.003Z,12.60
2018-10-04T23:00:58.856Z,12.23
2018-10-04T23:03:27.632Z,14.03
2018-10-04T23:05:56.268Z,12.50
2018-10-04T23:08:25.043Z,12.43
2018-10-04T23:10:53.818Z,12.63
2018-10-04T23:13:22.521Z,11.73
2018-10-04T23:15:51.250Z,12.37
2018-10-04T23:18:19.924Z,13.70
2018-10-04T23:20:48.779Z,14.17
2018-10-04T23:23:17.454Z,13.60
2018-10-04T23:25:46.107Z,11.80
2018-10-04T23:28:14.850Z,13.13
2018-10-04T23:30:43.601Z,12.50
2018-10-04T23:33:12.418Z,12.60
2018-10-04T23:35:41.212Z,12.10
2018-10-04T23:38:09.827Z,11.00
2018-10-04T23:40:38.543Z,10.70
2018-10-04T23:43:07.150Z,13.43
2018-10-04T23:45:35.853Z,12.93
2018-10-04T23:48:04.608Z,12.53
2018-10-04T23:50:33.269Z,11.77
2018-10-04T23:53:01.918Z,11.87
2018-10-04T23:55:30.564Z,12.40
2018-10-04T23:57:59.290Z,11.07
